sensor_id;sensor_type;location;lat;lon;timestamp;P1;durP1;ratioP1;P2;durP2;ratioP2
70216;SDS011;65567;55.684;37.570;2023-12-04T00:02:23;10.65;;;5.13;;
70216;SDS011;65567;55.684;37.570;2023-12-04T00:04:49;8.65;;;4.65;;
70216;SDS011;65567;55.684;37.570;2023-12-04T00:07:15;10.60;;;5.15;;
70216;SDS011;65567;55.684;37.570;2023-12-04T00:09:42;9.75;;;4.63;;
70216;SDS011;65567;55.684;37.570;2023-12-04T00:12:07;11.13;;;5.00;;
70216;SDS011;65567;55.684;37.570;2023-12-04T00:14:33;10.13;;;4.85;;
70216;SDS011;65567;55.684;37.570;2023-12-04T00:17:02;10.30;;;5.18;;
70216;SDS011;65567;55.684;37.570;2023-12-04T00:19:28;9.48;;;4.88;;
70216;SDS011;65567;55.684;37.570;2023-12-04T00:21:54;11.15;;;5.18;;
70216;SDS011;65567;55.684;37.570;2023-12-04T00:24:22;9.90;;;4.88;;
70216;SDS011;65567;55.684;37.570;2023-12-04T00:26:51;8.18;;;4.25;;
70216;SDS011;65567;55.684;37.570;2023-12-04T00:29:17;11.30;;;4.78;;
70216;SDS011;65567;55.684;37.570;2023-12-04T00:31:42;9.63;;;4.45;;
70216;SDS011;65567;55.684;37.570;2023-12-04T00:34:08;10.05;;;4.50;;
70216;SDS011;65567;55.684;37.570;2023-12-04T00:36:35;10.18;;;4.45;;
70216;SDS011;65567;55.684;37.570;2023-12-04T00:39:00;8.25;;;4.32;;
70216;SDS011;65567;55.684;37.570;2023-12-04T00:41:28;11.60;;;5.20;;
70216;SDS011;65567;55.684;37.570;2023-12-04T00:43:54;9.15;;;4.53;;
70216;SDS011;65567;55.684;37.570;2023-12-04T00:46:21;8.63;;;4.35;;
70216;SDS011;65567;55.684;37.570;2023-12-04T00:48:47;9.48;;;5.03;;
70216;SDS011;65567;55.684;37.570;2023-12-04T00:51:12;9.02;;;5.07;;
70216;SDS011;65567;55.684;37.570;2023-12-04T00:53:38;7.85;;;4.07;;
70216;SDS011;65567;55.684;37.570;2023-12-04T00:56:04;10.98;;;5.00;;
70216;SDS011;65567;55.684;37.570;2023-12-04T00:58:31;8.50;;;4.55;;
70216;SDS011;65567;55.684;37.570;2023-12-04T01:00:57;9.90;;;5.25;;
70216;SDS011;65567;55.684;37.570;2023-12-04T01:03:22;9.07;;;4.90;;
70216;SDS011;65567;55.684;37.570;2023-12-04T01:05:51;11.20;;;5.18;;
70216;SDS011;65567;55.684;37.570;2023-12-04T01:08:17;8.40;;;4.57;;
70216;SDS011;65567;55.684;37.570;2023-12-04T01:10:43;8.98;;;5.18;;
70216;SDS011;65567;55.684;37.570;2023-12-04T01:13:08;9.93;;;5.10;;
70216;SDS011;65567;55.684;37.570;2023-12-04T01:15:34;7.95;;;4.43;;
70216;SDS011;65567;55.684;37.570;2023-12-04T01:18:02;10.00;;;5.18;;
70216;SDS011;65567;55.684;37.570;2023-12-04T01:20:28;8.90;;;5.07;;
70216;SDS011;65567;55.684;37.570;2023-12-04T01:22:54;7.88;;;4.38;;
70216;SDS011;65567;55.684;37.570;2023-12-04T01:25:21;9.70;;;4.75;;
70216;SDS011;65567;55.684;37.570;2023-12-04T01:27:46;10.07;;;5.28;;
70216;SDS011;65567;55.684;37.570;2023-12-04T01:30:13;12.23;;;5.38;;
70216;SDS011;65567;55.684;37.570;2023-12-04T01:32:39;9.02;;;4.90;;
70216;SDS011;65567;55.684;37.570;2023-12-04T01:35:05;10.90;;;5.88;;
70216;SDS011;65567;55.684;37.570;2023-12-04T01:37:31;8.88;;;4.85;;
70216;SDS011;65567;55.684;37.570;2023-12-04T01:39:57;9.35;;;4.85;;
70216;SDS011;65567;55.684;37.570;2023-12-04T01:42:23;7.22;;;4.43;;
70216;SDS011;65567;55.684;37.570;2023-12-04T01:44:49;9.80;;;5.25;;
70216;SDS011;65567;55.684;37.570;2023-12-04T01:47:15;12.98;;;5.95;;
70216;SDS011;65567;55.684;37.570;2023-12-04T01:49:41;9.98;;;5.20;;
70216;SDS011;65567;55.684;37.570;2023-12-04T01:52:07;11.02;;;5.57;;
70216;SDS011;65567;55.684;37.570;2023-12-04T01:54:34;11.38;;;5.40;;
70216;SDS011;65567;55.684;37.570;2023-12-04T01:57:01;10.48;;;5.25;;
70216;SDS011;65567;55.684;37.570;2023-12-04T01:59:28;9.88;;;5.07;;
70216;SDS011;65567;55.684;37.570;2023-12-04T02:01:54;10.48;;;5.13;;
70216;SDS011;65567;55.684;37.570;2023-12-04T02:04:21;9.35;;;4.35;;
70216;SDS011;65567;55.684;37.570;2023-12-04T02:06:47;11.20;;;6.00;;
70216;SDS011;65567;55.684;37.570;2023-12-04T02:09:12;8.30;;;5.20;;
70216;SDS011;65567;55.684;37.570;2023-12-04T02:11:41;9.30;;;5.03;;
70216;SDS011;65567;55.684;37.570;2023-12-04T02:14:07;10.63;;;5.32;;
70216;SDS011;65567;55.684;37.570;2023-12-04T02:16:34;11.32;;;5.72;;
70216;SDS011;65567;55.684;37.570;2023-12-04T02:19:05;12.80;;;5.97;;
70216;SDS011;65567;55.684;37.570;2023-12-04T02:21:32;8.63;;;5.05;;
70216;SDS011;65567;55.684;37.570;2023-12-04T02:23:58;12.73;;;5.43;;
70216;SDS011;65567;55.684;37.570;2023-12-04T02:26:26;9.32;;;5.63;;
70216;SDS011;65567;55.684;37.570;2023-12-04T02:28:58;11.63;;;5.40;;
70216;SDS011;65567;55.684;37.570;2023-12-04T02:31:26;11.02;;;5.45;;
70216;SDS011;65567;55.684;37.570;2023-12-04T02:33:55;11.75;;;5.72;;
70216;SDS011;65567;55.684;37.570;2023-12-04T02:36:22;10.55;;;5.32;;
70216;SDS011;65567;55.684;37.570;2023-12-04T02:38:50;12.90;;;6.28;;
70216;SDS011;65567;55.684;37.570;2023-12-04T02:41:17;11.25;;;5.93;;
70216;SDS011;65567;55.684;37.570;2023-12-04T02:43:43;13.75;;;6.82;;
70216;SDS011;65567;55.684;37.570;2023-12-04T02:46:09;11.07;;;6.43;;
70216;SDS011;65567;55.684;37.570;2023-12-04T02:48:35;12.88;;;6.88;;
70216;SDS011;65567;55.684;37.570;2023-12-04T02:51:02;14.23;;;7.10;;
70216;SDS011;65567;55.684;37.570;2023-12-04T02:53:28;6.07;;;3.42;;
70216;SDS011;65567;55.684;37.570;2023-12-04T02:55:54;11.10;;;5.85;;
70216;SDS011;65567;55.684;37.570;2023-12-04T02:58:23;13.35;;;6.57;;
70216;SDS011;65567;55.684;37.570;2023-12-04T03:00:51;13.15;;;6.15;;
70216;SDS011;65567;55.684;37.570;2023-12-04T03:03:17;11.23;;;6.28;;
70216;SDS011;65567;55.684;37.570;2023-12-04T03:05:43;14.80;;;6.70;;
70216;SDS011;65567;55.684;37.570;2023-12-04T03:08:08;12.02;;;6.55;;
70216;SDS011;65567;55.684;37.570;2023-12-04T03:10:34;13.63;;;6.40;;
70216;SDS011;65567;55.684;37.570;2023-12-04T03:13:01;15.23;;;6.90;;
70216;SDS011;65567;55.684;37.570;2023-12-04T03:15:26;13.00;;;6.30;;
70216;SDS011;65567;55.684;37.570;2023-12-04T03:17:54;8.18;;;4.22;;
70216;SDS011;65567;55.684;37.570;2023-12-04T03:20:20;10.02;;;4.88;;
70216;SDS011;65567;55.684;37.570;2023-12-04T03:22:46;14.95;;;7.28;;
70216;SDS011;65567;55.684;37.570;2023-12-04T03:25:12;12.68;;;6.15;;
70216;SDS011;65567;55.684;37.570;2023-12-04T03:27:38;11.35;;;6.18;;
70216;SDS011;65567;55.684;37.570;2023-12-04T03:30:04;11.13;;;5.95;;
70216;SDS011;65567;55.684;37.570;2023-12-04T03:32:30;9.80;;;4.95;;
70216;SDS011;65567;55.684;37.570;2023-12-04T03:34:56;14.13;;;6.53;;
70216;SDS011;65567;55.684;37.570;2023-12-04T03:37:22;13.77;;;7.28;;
70216;SDS011;65567;55.684;37.570;2023-12-04T03:39:50;12.38;;;6.43;;
70216;SDS011;65567;55.684;37.570;2023-12-04T03:42:19;13.65;;;6.63;;
70216;SDS011;65567;55.684;37.570;2023-12-04T03:44:45;13.75;;;6.28;;
70216;SDS011;65567;55.684;37.570;2023-12-04T03:47:11;11.25;;;6.35;;
70216;SDS011;65567;55.684;37.570;2023-12-04T03:49:37;14.05;;;6.43;;
70216;SDS011;65567;55.684;37.570;2023-12-04T03:52:06;11.90;;;5.72;;
70216;SDS011;65567;55.684;37.570;2023-12-04T03:54:31;12.50;;;7.05;;
70216;SDS011;65567;55.684;37.570;2023-12-04T03:56:57;13.73;;;6.68;;
70216;SDS011;65567;55.684;37.570;2023-12-04T03:59:23;14.20;;;7.25;;
70216;SDS011;65567;55.684;37.570;2023-12-04T04:01:49;16.23;;;8.23;;
70216;SDS011;65567;55.684;37.570;2023-12-04T04:04:24;14.40;;;8.10;;
70216;SDS011;65567;55.684;37.570;2023-12-04T04:07:08;14.40;;;7.45;;
70216;SDS011;65567;55.684;37.570;2023-12-04T04:09:34;14.75;;;7.32;;
70216;SDS011;65567;55.684;37.570;2023-12-04T04:12:00;13.77;;;6.88;;
70216;SDS011;65567;55.684;37.570;2023-12-04T04:14:26;12.07;;;6.97;;
70216;SDS011;65567;55.684;37.570;2023-12-04T04:16:53;13.90;;;5.90;;
70216;SDS011;65567;55.684;37.570;2023-12-04T04:19:21;14.52;;;7.28;;
70216;SDS011;65567;55.684;37.570;2023-12-04T04:21:47;7.32;;;3.47;;
70216;SDS011;65567;55.684;37.570;2023-12-04T04:24:12;15.93;;;7.07;;
70216;SDS011;65567;55.684;37.570;2023-12-04T04:26:41;15.48;;;7.55;;
70216;SDS011;65567;55.684;37.570;2023-12-04T04:29:07;13.52;;;7.25;;
70216;SDS011;65567;55.684;37.570;2023-12-04T04:31:33;14.57;;;6.57;;
70216;SDS011;65567;55.684;37.570;2023-12-04T04:33:59;16.63;;;8.27;;
70216;SDS011;65567;55.684;37.570;2023-12-04T04:36:25;13.82;;;7.75;;
70216;SDS011;65567;55.684;37.570;2023-12-04T04:38:50;17.17;;;8.70;;
70216;SDS011;65567;55.684;37.570;2023-12-04T04:41:17;18.65;;;8.18;;
70216;SDS011;65567;55.684;37.570;2023-12-04T04:43:42;15.20;;;8.65;;
70216;SDS011;65567;55.684;37.570;2023-12-04T04:46:11;14.32;;;7.15;;
70216;SDS011;65567;55.684;37.570;2023-12-04T04:48:37;14.70;;;7.85;;
70216;SDS011;65567;55.684;37.570;2023-12-04T04:51:03;13.77;;;7.65;;
70216;SDS011;65567;55.684;37.570;2023-12-04T04:53:29;15.73;;;8.68;;
70216;SDS011;65567;55.684;37.570;2023-12-04T04:55:55;17.55;;;7.80;;
70216;SDS011;65567;55.684;37.570;2023-12-04T04:58:21;13.93;;;7.55;;
70216;SDS011;65567;55.684;37.570;2023-12-04T05:00:47;13.45;;;7.63;;
70216;SDS011;65567;55.684;37.570;2023-12-04T05:03:13;14.13;;;7.15;;
70216;SDS011;65567;55.684;37.570;2023-12-04T05:05:39;15.57;;;7.82;;
70216;SDS011;65567;55.684;37.570;2023-12-04T05:08:04;17.58;;;8.20;;
70216;SDS011;65567;55.684;37.570;2023-12-04T05:10:30;13.65;;;7.00;;
70216;SDS011;65567;55.684;37.570;2023-12-04T05:12:56;16.40;;;8.07;;
70216;SDS011;65567;55.684;37.570;2023-12-04T05:15:22;14.85;;;7.95;;
70216;SDS011;65567;55.684;37.570;2023-12-04T05:17:48;16.08;;;7.88;;
70216;SDS011;65567;55.684;37.570;2023-12-04T05:20:13;13.57;;;8.25;;
70216;SDS011;65567;55.684;37.570;2023-12-04T05:22:39;16.35;;;8.50;;
70216;SDS011;65567;55.684;37.570;2023-12-04T05:25:06;15.90;;;7.57;;
70216;SDS011;65567;55.684;37.570;2023-12-04T05:27:32;17.05;;;7.65;;
70216;SDS011;65567;55.684;37.570;2023-12-04T05:29:58;13.05;;;6.65;;
70216;SDS011;65567;55.684;37.570;2023-12-04T05:32:24;17.58;;;8.23;;
70216;SDS011;65567;55.684;37.570;2023-12-04T05:34:52;18.45;;;8.45;;
70216;SDS011;65567;55.684;37.570;2023-12-04T05:37:18;16.63;;;9.05;;
70216;SDS011;65567;55.684;37.570;2023-12-04T05:39:47;15.77;;;8.68;;
70216;SDS011;65567;55.684;37.570;2023-12-04T05:42:13;15.32;;;8.27;;
70216;SDS011;65567;55.684;37.570;2023-12-04T05:44:39;15.48;;;7.78;;
70216;SDS011;65567;55.684;37.570;2023-12-04T05:47:04;17.52;;;7.95;;
70216;SDS011;65567;55.684;37.570;2023-12-04T05:49:30;16.38;;;8.23;;
70216;SDS011;65567;55.684;37.570;2023-12-04T05:51:58;14.82;;;7.53;;
70216;SDS011;65567;55.684;37.570;2023-12-04T05:54:26;24.13;;;8.18;;
70216;SDS011;65567;55.684;37.570;2023-12-04T05:56:52;15.90;;;8.40;;
70216;SDS011;65567;55.684;37.570;2023-12-04T05:59:18;18.48;;;7.72;;
70216;SDS011;65567;55.684;37.570;2023-12-04T06:01:44;11.55;;;5.45;;
70216;SDS011;65567;55.684;37.570;2023-12-04T06:04:09;14.55;;;8.00;;
70216;SDS011;65567;55.684;37.570;2023-12-04T06:06:35;15.85;;;8.05;;
70216;SDS011;65567;55.684;37.570;2023-12-04T06:09:01;16.00;;;7.95;;
70216;SDS011;65567;55.684;37.570;2023-12-04T06:11:27;15.15;;;7.78;;
70216;SDS011;65567;55.684;37.570;2023-12-04T06:13:52;15.48;;;7.78;;
70216;SDS011;65567;55.684;37.570;2023-12-04T06:16:18;17.17;;;8.25;;
70216;SDS011;65567;55.684;37.570;2023-12-04T06:18:44;16.75;;;8.30;;
70216;SDS011;65567;55.684;37.570;2023-12-04T06:21:10;15.63;;;8.13;;
70216;SDS011;65567;55.684;37.570;2023-12-04T06:23:36;14.93;;;7.57;;
70216;SDS011;65567;55.684;37.570;2023-12-04T06:26:02;17.50;;;8.40;;
70216;SDS011;65567;55.684;37.570;2023-12-04T06:28:28;16.50;;;8.68;;
70216;SDS011;65567;55.684;37.570;2023-12-04T06:30:54;14.45;;;8.02;;
70216;SDS011;65567;55.684;37.570;2023-12-04T06:33:20;14.00;;;7.95;;
70216;SDS011;65567;55.684;37.570;2023-12-04T06:35:46;15.77;;;7.90;;
70216;SDS011;65567;55.684;37.570;2023-12-04T06:38:13;12.95;;;6.15;;
70216;SDS011;65567;55.684;37.570;2023-12-04T06:40:41;17.20;;;8.45;;
70216;SDS011;65567;55.684;37.570;2023-12-04T06:43:07;19.15;;;9.30;;
70216;SDS011;65567;55.684;37.570;2023-12-04T06:45:33;16.50;;;8.60;;
70216;SDS011;65567;55.684;37.570;2023-12-04T06:47:59;17.00;;;8.02;;
70216;SDS011;65567;55.684;37.570;2023-12-04T06:50:26;16.75;;;8.57;;
70216;SDS011;65567;55.684;37.570;2023-12-04T06:52:52;15.70;;;7.88;;
70216;SDS011;65567;55.684;37.570;2023-12-04T06:55:18;17.38;;;8.20;;
70216;SDS011;65567;55.684;37.570;2023-12-04T06:57:44;15.02;;;7.30;;
70216;SDS011;65567;55.684;37.570;2023-12-04T07:00:11;16.20;;;7.60;;
70216;SDS011;65567;55.684;37.570;2023-12-04T07:02:41;12.88;;;6.53;;
70216;SDS011;65567;55.684;37.570;2023-12-04T07:05:07;15.18;;;7.32;;
70216;SDS011;65567;55.684;37.570;2023-12-04T07:07:34;15.55;;;8.20;;
70216;SDS011;65567;55.684;37.570;2023-12-04T07:10:00;15.90;;;8.32;;
70216;SDS011;65567;55.684;37.570;2023-12-04T07:12:26;19.52;;;8.57;;
70216;SDS011;65567;55.684;37.570;2023-12-04T07:14:51;16.73;;;8.77;;
70216;SDS011;65567;55.684;37.570;2023-12-04T07:17:17;17.48;;;8.27;;
70216;SDS011;65567;55.684;37.570;2023-12-04T07:19:43;14.88;;;8.32;;
70216;SDS011;65567;55.684;37.570;2023-12-04T07:22:09;16.80;;;9.48;;
70216;SDS011;65567;55.684;37.570;2023-12-04T07:24:34;17.05;;;9.68;;
70216;SDS011;65567;55.684;37.570;2023-12-04T07:27:03;19.10;;;8.77;;
70216;SDS011;65567;55.684;37.570;2023-12-04T07:29:30;17.73;;;9.40;;
70216;SDS011;65567;55.684;37.570;2023-12-04T07:31:56;18.90;;;8.48;;
70216;SDS011;65567;55.684;37.570;2023-12-04T07:34:21;16.33;;;8.50;;
70216;SDS011;65567;55.684;37.570;2023-12-04T07:36:47;17.63;;;9.50;;
70216;SDS011;65567;55.684;37.570;2023-12-04T07:39:13;17.33;;;7.88;;
70216;SDS011;65567;55.684;37.570;2023-12-04T07:41:40;19.70;;;9.25;;
70216;SDS011;65567;55.684;37.570;2023-12-04T07:44:05;19.90;;;10.18;;
70216;SDS011;65567;55.684;37.570;2023-12-04T07:46:31;18.38;;;9.82;;
70216;SDS011;65567;55.684;37.570;2023-12-04T07:48:57;19.02;;;9.27;;
70216;SDS011;65567;55.684;37.570;2023-12-04T07:51:23;19.17;;;10.43;;
70216;SDS011;65567;55.684;37.570;2023-12-04T07:53:48;19.25;;;9.77;;
70216;SDS011;65567;55.684;37.570;2023-12-04T07:56:14;18.92;;;9.18;;
70216;SDS011;65567;55.684;37.570;2023-12-04T07:58:40;18.33;;;9.98;;
70216;SDS011;65567;55.684;37.570;2023-12-04T08:01:06;17.38;;;9.23;;
70216;SDS011;65567;55.684;37.570;2023-12-04T08:03:32;18.42;;;9.35;;
70216;SDS011;65567;55.684;37.570;2023-12-04T08:05:57;19.10;;;9.43;;
70216;SDS011;65567;55.684;37.570;2023-12-04T08:08:26;17.00;;;8.88;;
70216;SDS011;65567;55.684;37.570;2023-12-04T08:10:51;22.45;;;11.65;;
70216;SDS011;65567;55.684;37.570;2023-12-04T08:13:18;17.23;;;9.40;;
70216;SDS011;65567;55.684;37.570;2023-12-04T08:15:44;21.15;;;9.85;;
70216;SDS011;65567;55.684;37.570;2023-12-04T08:18:09;20.35;;;10.45;;
70216;SDS011;65567;55.684;37.570;2023-12-04T08:20:35;17.77;;;10.15;;
70216;SDS011;65567;55.684;37.570;2023-12-04T08:23:01;19.38;;;9.20;;
70216;SDS011;65567;55.684;37.570;2023-12-04T08:25:28;19.05;;;9.65;;
70216;SDS011;65567;55.684;37.570;2023-12-04T08:27:54;16.38;;;8.27;;
70216;SDS011;65567;55.684;37.570;2023-12-04T08:30:20;21.15;;;10.10;;
70216;SDS011;65567;55.684;37.570;2023-12-04T08:32:46;14.15;;;6.93;;
70216;SDS011;65567;55.684;37.570;2023-12-04T08:35:12;19.70;;;9.55;;
70216;SDS011;65567;55.684;37.570;2023-12-04T08:37:38;21.80;;;10.80;;
70216;SDS011;65567;55.684;37.570;2023-12-04T08:40:05;17.83;;;9.23;;
70216;SDS011;65567;55.684;37.570;2023-12-04T08:42:33;18.10;;;10.00;;
70216;SDS011;65567;55.684;37.570;2023-12-04T08:44:59;18.15;;;9.15;;
70216;SDS011;65567;55.684;37.570;2023-12-04T08:47:25;18.23;;;9.20;;
70216;SDS011;65567;55.684;37.570;2023-12-04T08:49:50;17.13;;;8.90;;
70216;SDS011;65567;55.684;37.570;2023-12-04T08:52:16;18.92;;;9.02;;
70216;SDS011;65567;55.684;37.570;2023-12-04T08:54:42;16.33;;;8.80;;
70216;SDS011;65567;55.684;37.570;2023-12-04T08:57:08;13.45;;;7.20;;
70216;SDS011;65567;55.684;37.570;2023-12-04T08:59:34;15.82;;;7.72;;
70216;SDS011;65567;55.684;37.570;2023-12-04T09:02:00;15.25;;;7.57;;
70216;SDS011;65567;55.684;37.570;2023-12-04T09:04:32;14.77;;;8.73;;
70216;SDS011;65567;55.684;37.570;2023-12-04T09:06:58;17.80;;;7.72;;
70216;SDS011;65567;55.684;37.570;2023-12-04T09:09:23;15.73;;;7.88;;
70216;SDS011;65567;55.684;37.570;2023-12-04T09:11:49;16.23;;;9.40;;
70216;SDS011;65567;55.684;37.570;2023-12-04T09:14:15;14.10;;;7.78;;
70216;SDS011;65567;55.684;37.570;2023-12-04T09:16:41;15.05;;;8.00;;
70216;SDS011;65567;55.684;37.570;2023-12-04T09:19:08;17.00;;;8.65;;
70216;SDS011;65567;55.684;37.570;2023-12-04T09:21:34;14.75;;;8.05;;
70216;SDS011;65567;55.684;37.570;2023-12-04T09:24:00;17.40;;;7.18;;
70216;SDS011;65567;55.684;37.570;2023-12-04T09:26:29;13.75;;;7.38;;
70216;SDS011;65567;55.684;37.570;2023-12-04T09:28:55;14.65;;;6.88;;
70216;SDS011;65567;55.684;37.570;2023-12-04T09:31:20;14.70;;;7.38;;
70216;SDS011;65567;55.684;37.570;2023-12-04T09:33:46;13.98;;;6.95;;
70216;SDS011;65567;55.684;37.570;2023-12-04T09:36:12;17.58;;;8.05;;
70216;SDS011;65567;55.684;37.570;2023-12-04T09:38:38;14.13;;;6.97;;
70216;SDS011;65567;55.684;37.570;2023-12-04T09:41:04;15.35;;;7.88;;
70216;SDS011;65567;55.684;37.570;2023-12-04T09:45:59;13.52;;;7.53;;
70216;SDS011;65567;55.684;37.570;2023-12-04T09:48:26;13.25;;;6.57;;
70216;SDS011;65567;55.684;37.570;2023-12-04T09:50:53;18.17;;;8.05;;
70216;SDS011;65567;55.684;37.570;2023-12-04T09:53:19;13.38;;;3.60;;
70216;SDS011;65567;55.684;37.570;2023-12-04T09:55:49;19.52;;;10.15;;
70216;SDS011;65567;55.684;37.570;2023-12-04T09:58:17;15.57;;;8.38;;
70216;SDS011;65567;55.684;37.570;2023-12-04T10:00:45;16.77;;;9.25;;
70216;SDS011;65567;55.684;37.570;2023-12-04T10:03:11;15.90;;;8.80;;
70216;SDS011;65567;55.684;37.570;2023-12-04T10:05:40;15.75;;;8.30;;
70216;SDS011;65567;55.684;37.570;2023-12-04T10:08:10;18.75;;;8.70;;
70216;SDS011;65567;55.684;37.570;2023-12-04T10:10:36;16.15;;;8.68;;
70216;SDS011;65567;55.684;37.570;2023-12-04T10:13:02;23.02;;;10.27;;
70216;SDS011;65567;55.684;37.570;2023-12-04T10:15:28;14.25;;;7.90;;
70216;SDS011;65567;55.684;37.570;2023-12-04T10:17:54;21.83;;;10.90;;
70216;SDS011;65567;55.684;37.570;2023-12-04T10:20:19;20.20;;;10.23;;
70216;SDS011;65567;55.684;37.570;2023-12-04T10:22:54;19.98;;;9.50;;
70216;SDS011;65567;55.684;37.570;2023-12-04T10:25:24;19.58;;;10.23;;
70216;SDS011;65567;55.684;37.570;2023-12-04T10:27:53;19.38;;;10.00;;
70216;SDS011;65567;55.684;37.570;2023-12-04T10:32:56;20.30;;;10.48;;
70216;SDS011;65567;55.684;37.570;2023-12-04T10:35:25;21.05;;;10.68;;
70216;SDS011;65567;55.684;37.570;2023-12-04T10:37:54;20.92;;;11.32;;
70216;SDS011;65567;55.684;37.570;2023-12-04T10:40:25;24.88;;;12.00;;
70216;SDS011;65567;55.684;37.570;2023-12-04T10:42:57;23.30;;;11.80;;
70216;SDS011;65567;55.684;37.570;2023-12-04T10:45:38;24.00;;;11.50;;
70216;SDS011;65567;55.684;37.570;2023-12-04T10:48:05;21.30;;;11.07;;
70216;SDS011;65567;55.684;37.570;2023-12-04T10:50:32;22.30;;;11.38;;
70216;SDS011;65567;55.684;37.570;2023-12-04T10:53:01;21.17;;;10.15;;
70216;SDS011;65567;55.684;37.570;2023-12-04T10:55:29;22.30;;;10.80;;
70216;SDS011;65567;55.684;37.570;2023-12-04T10:57:55;20.63;;;10.13;;
70216;SDS011;65567;55.684;37.570;2023-12-04T11:00:22;20.27;;;10.48;;
70216;SDS011;65567;55.684;37.570;2023-12-04T11:02:49;23.17;;;10.63;;
70216;SDS011;65567;55.684;37.570;2023-12-04T11:05:20;22.17;;;11.52;;
70216;SDS011;65567;55.684;37.570;2023-12-04T11:07:50;24.75;;;11.40;;
70216;SDS011;65567;55.684;37.570;2023-12-04T11:10:20;20.67;;;9.77;;
70216;SDS011;65567;55.684;37.570;2023-12-04T11:12:48;19.83;;;10.27;;
70216;SDS011;65567;55.684;37.570;2023-12-04T11:15:21;16.30;;;9.27;;
70216;SDS011;65567;55.684;37.570;2023-12-04T11:17:51;23.98;;;10.95;;
70216;SDS011;65567;55.684;37.570;2023-12-04T11:20:24;20.10;;;10.68;;
70216;SDS011;65567;55.684;37.570;2023-12-04T11:22:52;24.25;;;11.60;;
70216;SDS011;65567;55.684;37.570;2023-12-04T11:25:20;22.92;;;10.40;;
70216;SDS011;65567;55.684;37.570;2023-12-04T11:27:50;20.45;;;10.32;;
70216;SDS011;65567;55.684;37.570;2023-12-04T11:30:20;22.23;;;11.15;;
70216;SDS011;65567;55.684;37.570;2023-12-04T11:32:46;23.02;;;10.50;;
70216;SDS011;65567;55.684;37.570;2023-12-04T11:35:14;21.23;;;11.13;;
70216;SDS011;65567;55.684;37.570;2023-12-04T11:37:43;22.88;;;10.95;;
70216;SDS011;65567;55.684;37.570;2023-12-04T11:40:13;21.65;;;10.30;;
70216;SDS011;65567;55.684;37.570;2023-12-04T11:42:41;22.95;;;11.13;;
70216;SDS011;65567;55.684;37.570;2023-12-04T11:45:07;22.38;;;11.00;;
70216;SDS011;65567;55.684;37.570;2023-12-04T11:50:23;18.77;;;9.13;;
70216;SDS011;65567;55.684;37.570;2023-12-04T11:52:50;19.98;;;10.40;;
70216;SDS011;65567;55.684;37.570;2023-12-04T11:55:23;21.25;;;10.60;;
70216;SDS011;65567;55.684;37.570;2023-12-04T11:57:51;21.30;;;10.63;;
70216;SDS011;65567;55.684;37.570;2023-12-04T12:00:23;21.67;;;11.23;;
70216;SDS011;65567;55.684;37.570;2023-12-04T12:05:19;18.42;;;9.80;;
70216;SDS011;65567;55.684;37.570;2023-12-04T12:07:45;20.92;;;10.07;;
70216;SDS011;65567;55.684;37.570;2023-12-04T12:10:12;19.50;;;10.20;;
70216;SDS011;65567;55.684;37.570;2023-12-04T12:12:39;24.77;;;10.52;;
70216;SDS011;65567;55.684;37.570;2023-12-04T12:15:09;23.10;;;10.93;;
70216;SDS011;65567;55.684;37.570;2023-12-04T12:17:39;24.55;;;10.85;;
70216;SDS011;65567;55.684;37.570;2023-12-04T12:20:10;18.45;;;9.25;;
70216;SDS011;65567;55.684;37.570;2023-12-04T12:22:37;20.27;;;10.05;;
70216;SDS011;65567;55.684;37.570;2023-12-04T12:25:06;20.33;;;9.95;;
70216;SDS011;65567;55.684;37.570;2023-12-04T12:27:33;21.05;;;10.93;;
70216;SDS011;65567;55.684;37.570;2023-12-04T12:29:59;23.52;;;10.73;;
70216;SDS011;65567;55.684;37.570;2023-12-04T12:32:26;21.42;;;10.48;;
70216;SDS011;65567;55.684;37.570;2023-12-04T12:34:52;22.95;;;11.88;;
70216;SDS011;65567;55.684;37.570;2023-12-04T12:37:19;19.90;;;11.95;;
70216;SDS011;65567;55.684;37.570;2023-12-04T12:39:48;20.02;;;9.32;;
70216;SDS011;65567;55.684;37.570;2023-12-04T12:42:25;20.13;;;10.32;;
70216;SDS011;65567;55.684;37.570;2023-12-04T12:44:55;20.83;;;9.75;;
70216;SDS011;65567;55.684;37.570;2023-12-04T12:47:24;20.48;;;10.75;;
70216;SDS011;65567;55.684;37.570;2023-12-04T12:49:50;19.90;;;10.30;;
70216;SDS011;65567;55.684;37.570;2023-12-04T12:52:17;21.02;;;10.82;;
70216;SDS011;65567;55.684;37.570;2023-12-04T12:54:44;21.48;;;9.88;;
70216;SDS011;65567;55.684;37.570;2023-12-04T12:57:10;21.42;;;10.88;;
70216;SDS011;65567;55.684;37.570;2023-12-04T12:59:40;21.83;;;12.18;;
70216;SDS011;65567;55.684;37.570;2023-12-04T13:02:06;21.00;;;10.50;;
70216;SDS011;65567;55.684;37.570;2023-12-04T13:07:01;22.38;;;10.63;;
70216;SDS011;65567;55.684;37.570;2023-12-04T13:09:28;16.13;;;8.48;;
70216;SDS011;65567;55.684;37.570;2023-12-04T13:11:54;19.92;;;11.18;;
70216;SDS011;65567;55.684;37.570;2023-12-04T13:14:20;21.02;;;11.60;;
70216;SDS011;65567;55.684;37.570;2023-12-04T13:16:46;16.58;;;8.45;;
70216;SDS011;65567;55.684;37.570;2023-12-04T13:19:12;20.85;;;10.50;;
70216;SDS011;65567;55.684;37.570;2023-12-04T13:21:37;20.00;;;10.50;;
70216;SDS011;65567;55.684;37.570;2023-12-04T13:24:03;21.65;;;10.63;;
70216;SDS011;65567;55.684;37.570;2023-12-04T13:26:32;18.73;;;10.45;;
70216;SDS011;65567;55.684;37.570;2023-12-04T13:29:01;23.30;;;11.63;;
70216;SDS011;65567;55.684;37.570;2023-12-04T13:31:27;26.10;;;12.48;;
70216;SDS011;65567;55.684;37.570;2023-12-04T13:33:57;21.13;;;10.45;;
70216;SDS011;65567;55.684;37.570;2023-12-04T13:36:23;24.92;;;10.38;;
70216;SDS011;65567;55.684;37.570;2023-12-04T13:38:49;21.67;;;10.40;;
70216;SDS011;65567;55.684;37.570;2023-12-04T13:41:15;17.77;;;8.35;;
70216;SDS011;65567;55.684;37.570;2023-12-04T13:43:59;20.58;;;11.10;;
70216;SDS011;65567;55.684;37.570;2023-12-04T13:46:25;22.00;;;10.73;;
70216;SDS011;65567;55.684;37.570;2023-12-04T13:48:52;19.92;;;10.02;;
70216;SDS011;65567;55.684;37.570;2023-12-04T13:51:18;22.35;;;11.10;;
70216;SDS011;65567;55.684;37.570;2023-12-04T13:53:45;22.98;;;10.93;;
70216;SDS011;65567;55.684;37.570;2023-12-04T13:56:14;20.13;;;10.83;;
70216;SDS011;65567;55.684;37.570;2023-12-04T13:58:46;23.52;;;11.55;;
70216;SDS011;65567;55.684;37.570;2023-12-04T14:01:14;20.40;;;11.02;;
70216;SDS011;65567;55.684;37.570;2023-12-04T14:03:43;22.25;;;9.75;;
70216;SDS011;65567;55.684;37.570;2023-12-04T14:06:09;19.40;;;10.15;;
70216;SDS011;65567;55.684;37.570;2023-12-04T14:08:36;20.27;;;10.27;;
70216;SDS011;65567;55.684;37.570;2023-12-04T14:11:02;21.13;;;10.55;;
70216;SDS011;65567;55.684;37.570;2023-12-04T14:13:29;21.63;;;11.02;;
70216;SDS011;65567;55.684;37.570;2023-12-04T14:15:59;20.55;;;10.07;;
70216;SDS011;65567;55.684;37.570;2023-12-04T14:18:27;23.55;;;11.48;;
70216;SDS011;65567;55.684;37.570;2023-12-04T14:20:55;19.40;;;9.93;;
70216;SDS011;65567;55.684;37.570;2023-12-04T14:23:21;25.63;;;11.43;;
70216;SDS011;65567;55.684;37.570;2023-12-04T14:25:47;22.20;;;10.32;;
70216;SDS011;65567;55.684;37.570;2023-12-04T14:28:13;19.85;;;9.23;;
70216;SDS011;65567;55.684;37.570;2023-12-04T14:30:39;21.77;;;10.43;;